Aviation Digital Data Service (ADDS)

Output produced by METARs form (1153 UTC 18 June 2019)
found at http://www.aviationweather.gov/metar/data/
 
METAR text: AGGH 181100Z 20002KT 9999 FEW015 BKN300 26/25 Q1009
Conditions at: AGGH (HONIARA/HENDERSO, SB) observed 1100 UTC 18 June 2019
Temperature: 26.0°C (79°F)
Dewpoint: 25.0°C (77°F) [RH = 94%]
Pressure (altimeter): 29.79 inches Hg (1009.0 mb)
Winds: from the SSW (200 degrees) at 2 MPH (2 knots; 1.0 m/s)
Visibility: 6 or more miles (10+ km)
Ceiling: 30000 feet AGL
Clouds: few clouds at 1500 feet AGL
broken clouds at 30000 feet AGL
Weather: no significant weather observed at this time

METAR text: AGGH 181000Z 00000KT 9999 FEW015 SCT028 BKN300 26/25 Q1009
Conditions at: AGGH (HONIARA/HENDERSO, SB) observed 1000 UTC 18 June 2019
Temperature: 26.0°C (79°F)
Dewpoint: 25.0°C (77°F) [RH = 94%]
Pressure (altimeter): 29.79 inches Hg (1009.0 mb)
Winds: calm
Visibility: 6 or more miles (10+ km)
Ceiling: 30000 feet AGL
Clouds: few clouds at 1500 feet AGL
scattered clouds at 2800 feet AGL
broken clouds at 30000 feet AGL
Weather: no significant weather observed at this time

METAR text: AGGH 180900Z 00000KT 9999 FEW016 SCT029 BKN300 26/25 Q1008
Conditions at: AGGH (HONIARA/HENDERSO, SB) observed 0900 UTC 18 June 2019
Temperature: 26.0°C (79°F)
Dewpoint: 25.0°C (77°F) [RH = 94%]
Pressure (altimeter): 29.76 inches Hg (1008.0 mb)
Winds: calm
Visibility: 6 or more miles (10+ km)
Ceiling: 30000 feet AGL
Clouds: few clouds at 1600 feet AGL
scattered clouds at 2900 feet AGL
broken clouds at 30000 feet AGL
Weather: no significant weather observed at this time

METAR text: AGGH 180800Z 14002KT 9999 FEW017 SCT029 BKN100 26/25 Q1007
Conditions at: AGGH (HONIARA/HENDERSO, SB) observed 0800 UTC 18 June 2019
Temperature: 26.0°C (79°F)
Dewpoint: 25.0°C (77°F) [RH = 94%]
Pressure (altimeter): 29.73 inches Hg (1007.0 mb)
Winds: from the SE (140 degrees) at 2 MPH (2 knots; 1.0 m/s)
Visibility: 6 or more miles (10+ km)
Ceiling: 10000 feet AGL
Clouds: few clouds at 1700 feet AGL
scattered clouds at 2900 feet AGL
broken clouds at 10000 feet AGL
Weather: no significant weather observed at this time

METAR text: AGGH 180700Z 14002KT 9999 SCT017 BKN029 27/26 Q1007
Conditions at: AGGH (HONIARA/HENDERSO, SB) observed 0700 UTC 18 June 2019
Temperature: 27.0°C (81°F)
Dewpoint: 26.0°C (79°F) [RH = 94%]
Pressure (altimeter): 29.73 inches Hg (1007.0 mb)
Winds: from the SE (140 degrees) at 2 MPH (2 knots; 1.0 m/s)
Visibility: 6 or more miles (10+ km)
Ceiling: 2900 feet AGL
Clouds: scattered clouds at 1700 feet AGL
broken clouds at 2900 feet AGL
Weather: no significant weather observed at this time

METAR text: AGGH 180600Z 00000KT 9999 SCT017 BKN029 28/25 Q1007
Conditions at: AGGH (HONIARA/HENDERSO, SB) observed 0600 UTC 18 June 2019
Temperature: 28.0°C (82°F)
Dewpoint: 25.0°C (77°F) [RH = 84%]
Pressure (altimeter): 29.73 inches Hg (1007.0 mb)
Winds: calm
Visibility: 6 or more miles (10+ km)
Ceiling: 2900 feet AGL
Clouds: scattered clouds at 1700 feet AGL
broken clouds at 2900 feet AGL
Weather: no significant weather observed at this time

METAR text: AGGH 180500Z 09006KT 9999 -DZ SCT019 BKN029 28/26 Q1007
Conditions at: AGGH (HONIARA/HENDERSO, SB) observed 0500 UTC 18 June 2019
Temperature: 28.0°C (82°F)
Dewpoint: 26.0°C (79°F) [RH = 89%]
Pressure (altimeter): 29.73 inches Hg (1007.0 mb)
Winds: from the E (90 degrees) at 7 MPH (6 knots; 3.1 m/s)
Visibility: 6 or more miles (10+ km)
Ceiling: 2900 feet AGL
Clouds: scattered clouds at 1900 feet AGL
broken clouds at 2900 feet AGL
Weather: -DZ  (light drizzle)

METAR text: AGGH 180400Z 36006KT 9999 FEW020 SCT029 BKN100 31/25 Q1006
Conditions at: AGGH (HONIARA/HENDERSO, SB) observed 0400 UTC 18 June 2019
Temperature: 31.0°C (88°F)
Dewpoint: 25.0°C (77°F) [RH = 71%]
Pressure (altimeter): 29.70 inches Hg (1006.0 mb)
Winds: from the N (360 degrees) at 7 MPH (6 knots; 3.1 m/s)
Visibility: 6 or more miles (10+ km)
Ceiling: 10000 feet AGL
Clouds: few clouds at 2000 feet AGL
scattered clouds at 2900 feet AGL
broken clouds at 10000 feet AGL
Weather: no significant weather observed at this time

METAR text: AGGH 180300Z 34003KT 9999 FEW020 FEW021CB SCT030 BKN100 30/24 Q1007
Conditions at: AGGH (HONIARA/HENDERSO, SB) observed 0300 UTC 18 June 2019
Temperature: 30.0°C (86°F)
Dewpoint: 24.0°C (75°F) [RH = 70%]
Pressure (altimeter): 29.73 inches Hg (1007.0 mb)
Winds: from the NNW (340 degrees) at 3 MPH (3 knots; 1.5 m/s)
Visibility: 6 or more miles (10+ km)
Ceiling: 10000 feet AGL
Clouds: few clouds at 2000 feet AGL
few clouds at 2100 feet AGL
scattered clouds at 3000 feet AGL
broken clouds at 10000 feet AGL
Weather: no significant weather observed at this time

METAR text: AGGH 180200Z 34009KT 9999 SCT020 BKN100 31/25 Q1008
Conditions at: AGGH (HONIARA/HENDERSO, SB) observed 0200 UTC 18 June 2019
Temperature: 31.0°C (88°F)
Dewpoint: 25.0°C (77°F) [RH = 71%]
Pressure (altimeter): 29.76 inches Hg (1008.0 mb)
Winds: from the NNW (340 degrees) at 10 MPH (9 knots; 4.6 m/s)
Visibility: 6 or more miles (10+ km)
Ceiling: 10000 feet AGL
Clouds: scattered clouds at 2000 feet AGL
broken clouds at 10000 feet AGL
Weather: no significant weather observed at this time

METAR text: AGGH 180100Z 34008KT 9999 HZ FEW020 BKN100 32/25 Q1009
Conditions at: AGGH (HONIARA/HENDERSO, SB) observed 0100 UTC 18 June 2019
Temperature: 32.0°C (90°F)
Dewpoint: 25.0°C (77°F) [RH = 67%]
Pressure (altimeter): 29.79 inches Hg (1009.0 mb)
Winds: from the NNW (340 degrees) at 9 MPH (8 knots; 4.1 m/s)
Visibility: 6 or more miles (10+ km)
Ceiling: 10000 feet AGL
Clouds: few clouds at 2000 feet AGL
broken clouds at 10000 feet AGL
Weather: HZ  (haze)

METAR text: AGGH 180000Z 34006KT 9999 FEW019 BKN300 31/24 Q1009
Conditions at: AGGH (HONIARA/HENDERSO, SB) observed 0000 UTC 18 June 2019
Temperature: 31.0°C (88°F)
Dewpoint: 24.0°C (75°F) [RH = 66%]
Pressure (altimeter): 29.79 inches Hg (1009.0 mb)
Winds: from the NNW (340 degrees) at 7 MPH (6 knots; 3.1 m/s)
Visibility: 6 or more miles (10+ km)
Ceiling: 30000 feet AGL
Clouds: few clouds at 1900 feet AGL
broken clouds at 30000 feet AGL
Weather: no significant weather observed at this time

METAR text: AGGH 172330Z 36006KT 9999 FEW018 SCT300 31/24 Q1009
Conditions at: AGGH (HONIARA/HENDERSO, SB) observed 2330 UTC 17 June 2019
Temperature: 31.0°C (88°F)
Dewpoint: 24.0°C (75°F) [RH = 66%]
Pressure (altimeter): 29.79 inches Hg (1009.0 mb)
Winds: from the N (360 degrees) at 7 MPH (6 knots; 3.1 m/s)
Visibility: 6 or more miles (10+ km)
Ceiling: at least 12,000 feet AGL
Clouds: few clouds at 1800 feet AGL
scattered clouds at 30000 feet AGL
Weather: no significant weather observed at this time

METAR text: AGGH 172300Z 34006KT 9999 FEW018 SCT300 31/24 Q1009
Conditions at: AGGH (HONIARA/HENDERSO, SB) observed 2300 UTC 17 June 2019
Temperature: 31.0°C (88°F)
Dewpoint: 24.0°C (75°F) [RH = 66%]
Pressure (altimeter): 29.79 inches Hg (1009.0 mb)
Winds: from the NNW (340 degrees) at 7 MPH (6 knots; 3.1 m/s)
Visibility: 6 or more miles (10+ km)
Ceiling: at least 12,000 feet AGL
Clouds: few clouds at 1800 feet AGL
scattered clouds at 30000 feet AGL
Weather: no significant weather observed at this time

METAR text: AGGH 172200Z 18002KT 9999 FEW017 SCT100 28/24 Q1010
Conditions at: AGGH (HONIARA/HENDERSO, SB) observed 2200 UTC 17 June 2019
Temperature: 28.0°C (82°F)
Dewpoint: 24.0°C (75°F) [RH = 79%]
Pressure (altimeter): 29.82 inches Hg (1010.0 mb)
Winds: from the S (180 degrees) at 2 MPH (2 knots; 1.0 m/s)
Visibility: 6 or more miles (10+ km)
Ceiling: at least 12,000 feet AGL
Clouds: few clouds at 1700 feet AGL
scattered clouds at 10000 feet AGL
Weather: no significant weather observed at this time

METAR text: AGGH 172100Z 20002KT 9999 FEW016 BKN035 25/23 Q1009
Conditions at: AGGH (HONIARA/HENDERSO, SB) observed 2100 UTC 17 June 2019
Temperature: 25.0°C (77°F)
Dewpoint: 23.0°C (73°F) [RH = 89%]
Pressure (altimeter): 29.79 inches Hg (1009.0 mb)
Winds: from the SSW (200 degrees) at 2 MPH (2 knots; 1.0 m/s)
Visibility: 6 or more miles (10+ km)
Ceiling: 3500 feet AGL
Clouds: few clouds at 1600 feet AGL
broken clouds at 3500 feet AGL
Weather: no significant weather observed at this time

METAR text: AGGH 172000Z 00000KT 9999 FEW015 BKN030 23/23 Q1009
Conditions at: AGGH (HONIARA/HENDERSO, SB) observed 2000 UTC 17 June 2019
Temperature: 23.0°C (73°F)
Dewpoint: 23.0°C (73°F) [RH = 100%]
Pressure (altimeter): 29.79 inches Hg (1009.0 mb)
Winds: calm
Visibility: 6 or more miles (10+ km)
Ceiling: 3000 feet AGL
Clouds: few clouds at 1500 feet AGL
broken clouds at 3000 feet AGL
Weather: no significant weather observed at this time

METAR text: AGGH 171900Z 00000KT 9999 FEW014 SCT300 22/22 Q1008
Conditions at: AGGH (HONIARA/HENDERSO, SB) observed 1900 UTC 17 June 2019
Temperature: 22.0°C (72°F)
Dewpoint: 22.0°C (72°F) [RH = 100%]
Pressure (altimeter): 29.76 inches Hg (1008.0 mb)
Winds: calm
Visibility: 6 or more miles (10+ km)
Ceiling: at least 12,000 feet AGL
Clouds: few clouds at 1400 feet AGL
scattered clouds at 30000 feet AGL
Weather: no significant weather observed at this time

METAR text: AGGH 171800Z 00000KT 9999 FEW014 22/22 Q1008
Conditions at: AGGH (HONIARA/HENDERSO, SB) observed 1800 UTC 17 June 2019
Temperature: 22.0°C (72°F)
Dewpoint: 22.0°C (72°F) [RH = 100%]
Pressure (altimeter): 29.76 inches Hg (1008.0 mb)
Winds: calm
Visibility: 6 or more miles (10+ km)
Ceiling: at least 12,000 feet AGL
Clouds: few clouds at 1400 feet AGL
Weather: no significant weather observed at this time

METAR text: AGGH 171700Z 00000KT 9999 FEW014 23/23 Q1008
Conditions at: AGGH (HONIARA/HENDERSO, SB) observed 1700 UTC 17 June 2019
Temperature: 23.0°C (73°F)
Dewpoint: 23.0°C (73°F) [RH = 100%]
Pressure (altimeter): 29.76 inches Hg (1008.0 mb)
Winds: calm
Visibility: 6 or more miles (10+ km)
Ceiling: at least 12,000 feet AGL
Clouds: few clouds at 1400 feet AGL
Weather: no significant weather observed at this time

METAR text: AGGH 171600Z 00000KT 9999 FEW014 SCT100 23/23 Q1008
Conditions at: AGGH (HONIARA/HENDERSO, SB) observed 1600 UTC 17 June 2019
Temperature: 23.0°C (73°F)
Dewpoint: 23.0°C (73°F) [RH = 100%]
Pressure (altimeter): 29.76 inches Hg (1008.0 mb)
Winds: calm
Visibility: 6 or more miles (10+ km)
Ceiling: at least 12,000 feet AGL
Clouds: few clouds at 1400 feet AGL
scattered clouds at 10000 feet AGL
Weather: no significant weather observed at this time

METAR text: AGGH 171500Z 00000KT 9999 FEW014 23/23 Q1009
Conditions at: AGGH (HONIARA/HENDERSO, SB) observed 1500 UTC 17 June 2019
Temperature: 23.0°C (73°F)
Dewpoint: 23.0°C (73°F) [RH = 100%]
Pressure (altimeter): 29.79 inches Hg (1009.0 mb)
Winds: calm
Visibility: 6 or more miles (10+ km)
Ceiling: at least 12,000 feet AGL
Clouds: few clouds at 1400 feet AGL
Weather: no significant weather observed at this time

METAR text: AGGH 171400Z 18004KT 9999 HZ FEW015 24/23 Q1009
Conditions at: AGGH (HONIARA/HENDERSO, SB) observed 1400 UTC 17 June 2019
Temperature: 24.0°C (75°F)
Dewpoint: 23.0°C (73°F) [RH = 94%]
Pressure (altimeter): 29.79 inches Hg (1009.0 mb)
Winds: from the S (180 degrees) at 5 MPH (4 knots; 2.1 m/s)
Visibility: 6 or more miles (10+ km)
Ceiling: at least 12,000 feet AGL
Clouds: few clouds at 1500 feet AGL
Weather: HZ  (haze)

METAR text: AGGH 171300Z 14005KT 9999 HZ FEW015 24/23 Q1010
Conditions at: AGGH (HONIARA/HENDERSO, SB) observed 1300 UTC 17 June 2019
Temperature: 24.0°C (75°F)
Dewpoint: 23.0°C (73°F) [RH = 94%]
Pressure (altimeter): 29.82 inches Hg (1010.0 mb)
Winds: from the SE (140 degrees) at 6 MPH (5 knots; 2.6 m/s)
Visibility: 6 or more miles (10+ km)
Ceiling: at least 12,000 feet AGL
Clouds: few clouds at 1500 feet AGL
Weather: HZ  (haze)

METAR text: AGGH 171200Z 27002KT 9999 HZ FEW016 24/23 Q1010
Conditions at: AGGH (HONIARA/HENDERSO, SB) observed 1200 UTC 17 June 2019
Temperature: 24.0°C (75°F)
Dewpoint: 23.0°C (73°F) [RH = 94%]
Pressure (altimeter): 29.82 inches Hg (1010.0 mb)
Winds: from the W (270 degrees) at 2 MPH (2 knots; 1.0 m/s)
Visibility: 6 or more miles (10+ km)
Ceiling: at least 12,000 feet AGL
Clouds: few clouds at 1600 feet AGL
Weather: HZ  (haze)

METAR text: AGGH 171100Z 11002KT 9999 HZ FEW016 25/23 Q1010
Conditions at: AGGH (HONIARA/HENDERSO, SB) observed 1100 UTC 17 June 2019
Temperature: 25.0°C (77°F)
Dewpoint: 23.0°C (73°F) [RH = 89%]
Pressure (altimeter): 29.82 inches Hg (1010.0 mb)
Winds: from the ESE (110 degrees) at 2 MPH (2 knots; 1.0 m/s)
Visibility: 6 or more miles (10+ km)
Ceiling: at least 12,000 feet AGL
Clouds: few clouds at 1600 feet AGL
Weather: HZ  (haze)

METAR text: AGGH 171000Z 14002KT 9999 HZ FEW016 BKN300 25/24 Q1010
Conditions at: AGGH (HONIARA/HENDERSO, SB) observed 1000 UTC 17 June 2019
Temperature: 25.0°C (77°F)
Dewpoint: 24.0°C (75°F) [RH = 94%]
Pressure (altimeter): 29.82 inches Hg (1010.0 mb)
Winds: from the SE (140 degrees) at 2 MPH (2 knots; 1.0 m/s)
Visibility: 6 or more miles (10+ km)
Ceiling: 30000 feet AGL
Clouds: few clouds at 1600 feet AGL
broken clouds at 30000 feet AGL
Weather: HZ  (haze)

METAR text: AGGH 170900Z 11004KT 9999 HZ FEW017 BKN300 26/24 Q1009
Conditions at: AGGH (HONIARA/HENDERSO, SB) observed 0900 UTC 17 June 2019
Temperature: 26.0°C (79°F)
Dewpoint: 24.0°C (75°F) [RH = 89%]
Pressure (altimeter): 29.79 inches Hg (1009.0 mb)
Winds: from the ESE (110 degrees) at 5 MPH (4 knots; 2.1 m/s)
Visibility: 6 or more miles (10+ km)
Ceiling: 30000 feet AGL
Clouds: few clouds at 1700 feet AGL
broken clouds at 30000 feet AGL
Weather: HZ  (haze)

METAR text: AGGH 170800Z 09002KT 9999 HZ FEW020 BKN300 27/24 Q1008
Conditions at: AGGH (HONIARA/HENDERSO, SB) observed 0800 UTC 17 June 2019
Temperature: 27.0°C (81°F)
Dewpoint: 24.0°C (75°F) [RH = 84%]
Pressure (altimeter): 29.76 inches Hg (1008.0 mb)
Winds: from the E (90 degrees) at 2 MPH (2 knots; 1.0 m/s)
Visibility: 6 or more miles (10+ km)
Ceiling: 30000 feet AGL
Clouds: few clouds at 2000 feet AGL
broken clouds at 30000 feet AGL
Weather: HZ  (haze)

METAR text: AGGH 170700Z 09008KT 9999 HZ FEW020 BKN300 28/24 Q1008
Conditions at: AGGH (HONIARA/HENDERSO, SB) observed 0700 UTC 17 June 2019
Temperature: 28.0°C (82°F)
Dewpoint: 24.0°C (75°F) [RH = 79%]
Pressure (altimeter): 29.76 inches Hg (1008.0 mb)
Winds: from the E (90 degrees) at 9 MPH (8 knots; 4.1 m/s)
Visibility: 6 or more miles (10+ km)
Ceiling: 30000 feet AGL
Clouds: few clouds at 2000 feet AGL
broken clouds at 30000 feet AGL
Weather: HZ  (haze)

METAR text: AGGH 170600Z 09011KT 9999 HZ FEW020 BKN300 31/23 Q1008
Conditions at: AGGH (HONIARA/HENDERSO, SB) observed 0600 UTC 17 June 2019
Temperature: 31.0°C (88°F)
Dewpoint: 23.0°C (73°F) [RH = 63%]
Pressure (altimeter): 29.76 inches Hg (1008.0 mb)
Winds: from the E (90 degrees) at 13 MPH (11 knots; 5.7 m/s)
Visibility: 6 or more miles (10+ km)
Ceiling: 30000 feet AGL
Clouds: few clouds at 2000 feet AGL
broken clouds at 30000 feet AGL
Weather: HZ  (haze)

METAR text: AGGH 170500Z 09010KT 9999 HZ FEW020 BKN300 32/24 Q1007
Conditions at: AGGH (HONIARA/HENDERSO, SB) observed 0500 UTC 17 June 2019
Temperature: 32.0°C (90°F)
Dewpoint: 24.0°C (75°F) [RH = 63%]
Pressure (altimeter): 29.73 inches Hg (1007.0 mb)
Winds: from the E (90 degrees) at 12 MPH (10 knots; 5.1 m/s)
Visibility: 6 or more miles (10+ km)
Ceiling: 30000 feet AGL
Clouds: few clouds at 2000 feet AGL
broken clouds at 30000 feet AGL
Weather: HZ  (haze)

METAR text: AGGH 170400Z 07013KT 9999 FEW020 BKN300 33/25 Q1007
Conditions at: AGGH (HONIARA/HENDERSO, SB) observed 0400 UTC 17 June 2019
Temperature: 33.0°C (91°F)
Dewpoint: 25.0°C (77°F) [RH = 63%]
Pressure (altimeter): 29.73 inches Hg (1007.0 mb)
Winds: from the ENE (70 degrees) at 15 MPH (13 knots; 6.7 m/s)
Visibility: 6 or more miles (10+ km)
Ceiling: 30000 feet AGL
Clouds: few clouds at 2000 feet AGL
broken clouds at 30000 feet AGL
Weather: no significant weather observed at this time

METAR text: AGGH 170300Z 07013KT 9999 HZ FEW020 BKN300 32/24 Q1008
Conditions at: AGGH (HONIARA/HENDERSO, SB) observed 0300 UTC 17 June 2019
Temperature: 32.0°C (90°F)
Dewpoint: 24.0°C (75°F) [RH = 63%]
Pressure (altimeter): 29.76 inches Hg (1008.0 mb)
Winds: from the ENE (70 degrees) at 15 MPH (13 knots; 6.7 m/s)
Visibility: 6 or more miles (10+ km)
Ceiling: 30000 feet AGL
Clouds: few clouds at 2000 feet AGL
broken clouds at 30000 feet AGL
Weather: HZ  (haze)

METAR text: AGGH 170200Z 09012KT 9999 HZ FEW021 SCT300 33/24 Q1008
Conditions at: AGGH (HONIARA/HENDERSO, SB) observed 0200 UTC 17 June 2019
Temperature: 33.0°C (91°F)
Dewpoint: 24.0°C (75°F) [RH = 59%]
Pressure (altimeter): 29.76 inches Hg (1008.0 mb)
Winds: from the E (90 degrees) at 14 MPH (12 knots; 6.2 m/s)
Visibility: 6 or more miles (10+ km)
Ceiling: at least 12,000 feet AGL
Clouds: few clouds at 2100 feet AGL
scattered clouds at 30000 feet AGL
Weather: HZ  (haze)

METAR text: AGGH 170100Z 11013KT 9999 HZ FEW020 BKN300 32/24 Q1009
Conditions at: AGGH (HONIARA/HENDERSO, SB) observed 0100 UTC 17 June 2019
Temperature: 32.0°C (90°F)
Dewpoint: 24.0°C (75°F) [RH = 63%]
Pressure (altimeter): 29.79 inches Hg (1009.0 mb)
Winds: from the ESE (110 degrees) at 15 MPH (13 knots; 6.7 m/s)
Visibility: 6 or more miles (10+ km)
Ceiling: 30000 feet AGL
Clouds: few clouds at 2000 feet AGL
broken clouds at 30000 feet AGL
Weather: HZ  (haze)

METAR text: AGGH 170000Z 11014KT 9999 FEW019 SCT300 31/24 Q1010
Conditions at: AGGH (HONIARA/HENDERSO, SB) observed 0000 UTC 17 June 2019
Temperature: 31.0°C (88°F)
Dewpoint: 24.0°C (75°F) [RH = 66%]
Pressure (altimeter): 29.82 inches Hg (1010.0 mb)
Winds: from the ESE (110 degrees) at 16 MPH (14 knots; 7.2 m/s)
Visibility: 6 or more miles (10+ km)
Ceiling: at least 12,000 feet AGL
Clouds: few clouds at 1900 feet AGL
scattered clouds at 30000 feet AGL
Weather: no significant weather observed at this time

Forecast for: AGGH (HONIARA/HENDERSO, SB)
Text: TAF AGGH 181110Z 1812/1912 18010KT 9999 -SHRA FEW015 SCT027 BKN100
Forecast period: 1200 UTC 18 June 2019 to 1200 UTC 19 June 2019
Forecast type: FROM: standard forecast or significant change
Winds: from the S (180 degrees) at 12 MPH (10 knots; 5.1 m/s)
Visibility: 6 or more miles 10+ km)
Ceiling: 10000 feet AGL
Clouds: few clouds at 1500 feet AGL
scattered clouds at 2700 feet AGL
broken clouds at 10000 feet AGL
Weather: -SHRA  (light rain showers)
Text: PROB40 INTER 1812/1819 5000 SHRA BKN015 T 25 24 23 26 Q 1009 1007 1006 1008
Forecast period: 1200 to 1900 UTC 18 June 2019
Forecast type: TEMPORARY: The following changes expected for less than half the time period
Visibility: 3 miles (5 km)
Ceiling: 1500 feet AGL
Clouds: broken clouds at 1500 feet AGL
Weather: SHRA  (rain showers)